sensor_id;sensor_type;location;lat;lon;timestamp;temperature;humidity
62912;DHT22;49111;51.028;4.218;2023-03-13T06:48:28;14.40;99.90
62912;DHT22;49111;51.028;4.218;2023-03-13T06:50:54;14.40;99.90
62912;DHT22;49111;51.028;4.218;2023-03-13T06:53:21;14.40;99.90
62912;DHT22;49111;51.028;4.218;2023-03-13T06:55:47;14.40;99.90
62912;DHT22;49111;51.028;4.218;2023-03-13T06:58:16;14.40;99.90
62912;DHT22;49111;51.028;4.218;2023-03-13T07:00:42;14.50;99.90
62912;DHT22;49111;51.028;4.218;2023-03-13T07:03:09;14.50;99.90
62912;DHT22;49111;51.028;4.218;2023-03-13T07:05:36;14.50;99.90
62912;DHT22;49111;51.028;4.218;2023-03-13T07:08:02;14.40;99.90
62912;DHT22;49111;51.028;4.218;2023-03-13T07:10:29;14.50;99.90
62912;DHT22;49111;51.028;4.218;2023-03-13T07:12:55;14.50;99.90
62912;DHT22;49111;51.028;4.218;2023-03-13T07:15:22;14.50;99.90
62912;DHT22;49111;51.028;4.218;2023-03-13T07:17:48;14.60;99.90
62912;DHT22;49111;51.028;4.218;2023-03-13T07:20:14;14.60;99.90
62912;DHT22;49111;51.028;4.218;2023-03-13T07:22:39;14.70;99.90
62912;DHT22;49111;51.028;4.218;2023-03-13T07:25:06;14.60;99.90
62912;DHT22;49111;51.028;4.218;2023-03-13T07:27:32;14.70;99.90
62912;DHT22;49111;51.028;4.218;2023-03-13T07:29:57;14.80;99.90
62912;DHT22;49111;51.028;4.218;2023-03-13T07:32:23;14.80;99.90
62912;DHT22;49111;51.028;4.218;2023-03-13T07:34:49;14.70;99.90
62912;DHT22;49111;51.028;4.218;2023-03-13T07:37:15;14.70;99.90
62912;DHT22;49111;51.028;4.218;2023-03-13T07:39:42;14.80;99.90
62912;DHT22;49111;51.028;4.218;2023-03-13T07:42:10;14.80;99.90
62912;DHT22;49111;51.028;4.218;2023-03-13T07:44:36;14.80;99.90
62912;DHT22;49111;51.028;4.218;2023-03-13T07:47:02;14.90;99.90
62912;DHT22;49111;51.028;4.218;2023-03-13T07:49:28;14.80;99.90
62912;DHT22;49111;51.028;4.218;2023-03-13T07:51:54;14.70;99.90
62912;DHT22;49111;51.028;4.218;2023-03-13T07:54:20;14.60;99.90
62912;DHT22;49111;51.028;4.218;2023-03-13T07:56:46;14.50;99.90
62912;DHT22;49111;51.028;4.218;2023-03-13T07:59:11;14.40;99.90
62912;DHT22;49111;51.028;4.218;2023-03-13T08:01:37;14.40;99.90
62912;DHT22;49111;51.028;4.218;2023-03-13T08:04:03;14.50;99.90
62912;DHT22;49111;51.028;4.218;2023-03-13T08:06:31;14.40;99.90
62912;DHT22;49111;51.028;4.218;2023-03-13T08:08:58;14.40;99.90
62912;DHT22;49111;51.028;4.218;2023-03-13T08:11:25;14.30;99.90
62912;DHT22;49111;51.028;4.218;2023-03-13T08:13:54;14.40;99.90
62912;DHT22;49111;51.028;4.218;2023-03-13T08:16:26;14.50;99.90
62912;DHT22;49111;51.028;4.218;2023-03-13T08:18:55;14.50;99.90
62912;DHT22;49111;51.028;4.218;2023-03-13T08:21:26;14.40;99.90
62912;DHT22;49111;51.028;4.218;2023-03-13T08:23:54;14.50;99.90
62912;DHT22;49111;51.028;4.218;2023-03-13T08:26:22;14.50;99.90
62912;DHT22;49111;51.028;4.218;2023-03-13T08:28:52;14.50;99.90
62912;DHT22;49111;51.028;4.218;2023-03-13T08:31:21;14.60;99.90
62912;DHT22;49111;51.028;4.218;2023-03-13T08:33:47;14.60;99.90
62912;DHT22;49111;51.028;4.218;2023-03-13T08:36:18;14.70;99.90
62912;DHT22;49111;51.028;4.218;2023-03-13T08:38:46;14.80;99.90
62912;DHT22;49111;51.028;4.218;2023-03-13T08:41:14;14.80;99.90
62912;DHT22;49111;51.028;4.218;2023-03-13T08:43:40;14.90;99.90
62912;DHT22;49111;51.028;4.218;2023-03-13T08:46:06;15.00;99.90
62912;DHT22;49111;51.028;4.218;2023-03-13T08:48:32;15.10;99.90
62912;DHT22;49111;51.028;4.218;2023-03-13T08:55:31;15.20;99.90
62912;DHT22;49111;51.028;4.218;2023-03-13T08:57:57;15.10;99.90
62912;DHT22;49111;51.028;4.218;2023-03-13T09:00:23;15.20;99.90
62912;DHT22;49111;51.028;4.218;2023-03-13T09:02:49;15.20;99.90
62912;DHT22;49111;51.028;4.218;2023-03-13T09:05:14;15.30;99.90
62912;DHT22;49111;51.028;4.218;2023-03-13T09:07:40;15.30;99.90
62912;DHT22;49111;51.028;4.218;2023-03-13T09:10:06;15.40;99.90
62912;DHT22;49111;51.028;4.218;2023-03-13T09:12:32;15.40;99.90
62912;DHT22;49111;51.028;4.218;2023-03-13T09:14:58;15.50;99.90
62912;DHT22;49111;51.028;4.218;2023-03-13T09:17:24;15.50;99.90
62912;DHT22;49111;51.028;4.218;2023-03-13T09:19:50;15.60;99.90
62912;DHT22;49111;51.028;4.218;2023-03-13T09:22:16;15.70;99.90
62912;DHT22;49111;51.028;4.218;2023-03-13T09:24:42;15.70;99.90
62912;DHT22;49111;51.028;4.218;2023-03-13T09:27:09;15.80;99.90
62912;DHT22;49111;51.028;4.218;2023-03-13T09:29:35;15.90;99.90
62912;DHT22;49111;51.028;4.218;2023-03-13T09:32:04;15.90;99.90
62912;DHT22;49111;51.028;4.218;2023-03-13T09:34:30;16.10;99.90
62912;DHT22;49111;51.028;4.218;2023-03-13T09:36:56;16.20;99.90
62912;DHT22;49111;51.028;4.218;2023-03-13T09:39:22;16.20;99.90
62912;DHT22;49111;51.028;4.218;2023-03-13T09:41:56;16.20;99.90
62912;DHT22;49111;51.028;4.218;2023-03-13T09:44:31;16.20;99.90
62912;DHT22;49111;51.028;4.218;2023-03-13T09:47:14;16.20;99.90
62912;DHT22;49111;51.028;4.218;2023-03-13T09:49:54;16.10;99.90
62912;DHT22;49111;51.028;4.218;2023-03-13T09:52:26;16.10;99.90
62912;DHT22;49111;51.028;4.218;2023-03-13T09:57:45;16.00;99.90
62912;DHT22;49111;51.028;4.218;2023-03-13T10:03:11;16.30;99.90
62912;DHT22;49111;51.028;4.218;2023-03-13T10:05:50;16.40;99.90
62912;DHT22;49111;51.028;4.218;2023-03-13T10:08:25;16.30;99.90
62912;DHT22;49111;51.028;4.218;2023-03-13T10:11:05;16.40;99.90
62912;DHT22;49111;51.028;4.218;2023-03-13T10:13:48;16.50;99.90
62912;DHT22;49111;51.028;4.218;2023-03-13T10:16:30;16.50;99.90
62912;DHT22;49111;51.028;4.218;2023-03-13T10:18:58;16.60;99.90
62912;DHT22;49111;51.028;4.218;2023-03-13T10:21:31;16.50;99.90
62912;DHT22;49111;51.028;4.218;2023-03-13T10:26:29;16.60;99.90
62912;DHT22;49111;51.028;4.218;2023-03-13T10:29:01;16.70;99.90
62912;DHT22;49111;51.028;4.218;2023-03-13T10:31:36;16.80;99.90
62912;DHT22;49111;51.028;4.218;2023-03-13T10:34:07;17.00;99.90
62912;DHT22;49111;51.028;4.218;2023-03-13T10:36:42;17.30;99.90
62912;DHT22;49111;51.028;4.218;2023-03-13T10:39:15;17.40;99.90
62912;DHT22;49111;51.028;4.218;2023-03-13T10:41:41;17.50;99.90
62912;DHT22;49111;51.028;4.218;2023-03-13T10:44:19;17.40;99.90
62912;DHT22;49111;51.028;4.218;2023-03-13T10:46:47;17.50;99.90
62912;DHT22;49111;51.028;4.218;2023-03-13T10:49:21;17.40;99.90
62912;DHT22;49111;51.028;4.218;2023-03-13T10:52:11;17.40;99.90
62912;DHT22;49111;51.028;4.218;2023-03-13T10:54:58;17.40;99.90
62912;DHT22;49111;51.028;4.218;2023-03-13T10:57:29;17.50;99.90
62912;DHT22;49111;51.028;4.218;2023-03-13T10:59:55;17.50;99.90
62912;DHT22;49111;51.028;4.218;2023-03-13T11:04:51;17.50;99.90
62912;DHT22;49111;51.028;4.218;2023-03-13T11:07:28;17.40;99.90
62912;DHT22;49111;51.028;4.218;2023-03-13T11:12:44;17.40;99.90
62912;DHT22;49111;51.028;4.218;2023-03-13T11:15:21;17.40;99.90
62912;DHT22;49111;51.028;4.218;2023-03-13T11:18:27;17.40;99.90
62912;DHT22;49111;51.028;4.218;2023-03-13T11:20:45;17.40;99.90
62912;DHT22;49111;51.028;4.218;2023-03-13T11:33:46;17.80;99.90
62912;DHT22;49111;51.028;4.218;2023-03-13T11:36:46;18.10;99.90
62912;DHT22;49111;51.028;4.218;2023-03-13T11:39:31;18.30;99.90
62912;DHT22;49111;51.028;4.218;2023-03-13T12:00:40;18.50;98.90
62912;DHT22;49111;51.028;4.218;2023-03-13T12:03:15;18.50;99.80
62912;DHT22;49111;51.028;4.218;2023-03-13T12:05:50;18.30;99.60
62912;DHT22;49111;51.028;4.218;2023-03-13T12:08:37;18.40;99.70
62912;DHT22;49111;51.028;4.218;2023-03-13T12:11:23;18.50;99.90
62912;DHT22;49111;51.028;4.218;2023-03-13T12:14:01;18.30;99.90
62912;DHT22;49111;51.028;4.218;2023-03-13T12:16:40;18.20;99.90
62912;DHT22;49111;51.028;4.218;2023-03-13T12:19:33;18.20;99.90
62912;DHT22;49111;51.028;4.218;2023-03-13T12:21:57;18.40;99.90
62912;DHT22;49111;51.028;4.218;2023-03-13T12:27:41;18.70;99.90
62912;DHT22;49111;51.028;4.218;2023-03-13T12:30:41;18.90;99.90
62912;DHT22;49111;51.028;4.218;2023-03-13T12:33:25;18.90;99.90
62912;DHT22;49111;51.028;4.218;2023-03-13T12:36:14;19.00;99.90
62912;DHT22;49111;51.028;4.218;2023-03-13T12:38:49;19.10;98.40
62912;DHT22;49111;51.028;4.218;2023-03-13T12:41:28;19.20;97.20
62912;DHT22;49111;51.028;4.218;2023-03-13T12:43:57;19.00;97.40
62912;DHT22;49111;51.028;4.218;2023-03-13T13:00:22;19.00;99.10
62912;DHT22;49111;51.028;4.218;2023-03-13T13:05:58;19.00;97.70
62912;DHT22;49111;51.028;4.218;2023-03-13T13:08:25;19.00;98.10
62912;DHT22;49111;51.028;4.218;2023-03-13T13:10:51;19.10;97.90
62912;DHT22;49111;51.028;4.218;2023-03-13T13:13:30;19.20;98.70
62912;DHT22;49111;51.028;4.218;2023-03-13T13:16:03;19.40;97.70
62912;DHT22;49111;51.028;4.218;2023-03-13T13:18:29;19.40;97.30
62912;DHT22;49111;51.028;4.218;2023-03-13T13:23:41;19.00;97.00
62912;DHT22;49111;51.028;4.218;2023-03-13T13:34:54;19.10;96.70
62912;DHT22;49111;51.028;4.218;2023-03-13T13:39:48;19.00;95.10
62912;DHT22;49111;51.028;4.218;2023-03-13T13:45:01;18.90;96.20
62912;DHT22;49111;51.028;4.218;2023-03-13T13:47:29;18.80;96.30
62912;DHT22;49111;51.028;4.218;2023-03-13T13:49:58;18.80;96.90
62912;DHT22;49111;51.028;4.218;2023-03-13T13:52:35;18.80;97.00
62912;DHT22;49111;51.028;4.218;2023-03-13T13:55:01;18.80;97.20
62912;DHT22;49111;51.028;4.218;2023-03-13T13:57:33;18.80;97.50
62912;DHT22;49111;51.028;4.218;2023-03-13T14:00:21;18.90;97.80
62912;DHT22;49111;51.028;4.218;2023-03-13T14:02:54;18.80;97.20
62912;DHT22;49111;51.028;4.218;2023-03-13T14:05:25;18.90;97.40
62912;DHT22;49111;51.028;4.218;2023-03-13T14:08:24;18.80;97.20
62912;DHT22;49111;51.028;4.218;2023-03-13T14:11:15;18.70;97.00
62912;DHT22;49111;51.028;4.218;2023-03-13T14:14:18;18.70;96.90
62912;DHT22;49111;51.028;4.218;2023-03-13T14:16:50;18.60;96.30
62912;DHT22;49111;51.028;4.218;2023-03-13T14:19:37;18.60;96.30
62912;DHT22;49111;51.028;4.218;2023-03-13T14:22:13;18.50;95.50
62912;DHT22;49111;51.028;4.218;2023-03-13T14:24:39;18.50;95.60
62912;DHT22;49111;51.028;4.218;2023-03-13T14:27:18;18.60;96.00
62912;DHT22;49111;51.028;4.218;2023-03-13T14:30:02;18.80;95.60
62912;DHT22;49111;51.028;4.218;2023-03-13T14:32:28;18.90;94.60
62912;DHT22;49111;51.028;4.218;2023-03-13T14:34:54;19.00;94.50
62912;DHT22;49111;51.028;4.218;2023-03-13T14:37:43;18.90;94.20
62912;DHT22;49111;51.028;4.218;2023-03-13T14:40:30;18.80;94.50
62912;DHT22;49111;51.028;4.218;2023-03-13T14:43:01;18.70;94.70
62912;DHT22;49111;51.028;4.218;2023-03-13T14:45:34;18.60;94.80
62912;DHT22;49111;51.028;4.218;2023-03-13T14:48:08;18.50;95.00
62912;DHT22;49111;51.028;4.218;2023-03-13T14:50:37;18.40;94.50
62912;DHT22;49111;51.028;4.218;2023-03-13T14:53:11;18.50;94.80
62912;DHT22;49111;51.028;4.218;2023-03-13T14:55:38;18.50;94.70
62912;DHT22;49111;51.028;4.218;2023-03-13T15:00:44;18.90;93.90
62912;DHT22;49111;51.028;4.218;2023-03-13T15:06:06;19.00;93.00
62912;DHT22;49111;51.028;4.218;2023-03-13T15:08:34;19.10;92.40
62912;DHT22;49111;51.028;4.218;2023-03-13T15:11:00;19.10;91.80
62912;DHT22;49111;51.028;4.218;2023-03-13T15:13:32;19.00;91.40
62912;DHT22;49111;51.028;4.218;2023-03-13T15:16:00;18.90;91.30
62912;DHT22;49111;51.028;4.218;2023-03-13T15:18:31;18.80;91.90
62912;DHT22;49111;51.028;4.218;2023-03-13T15:21:12;18.90;91.20
62912;DHT22;49111;51.028;4.218;2023-03-13T15:23:57;18.90;90.00
62912;DHT22;49111;51.028;4.218;2023-03-13T15:26:24;19.00;90.60
62912;DHT22;49111;51.028;4.218;2023-03-13T15:28:50;19.00;90.50
62912;DHT22;49111;51.028;4.218;2023-03-13T15:31:16;19.00;90.70
62912;DHT22;49111;51.028;4.218;2023-03-13T15:33:42;19.10;90.70
62912;DHT22;49111;51.028;4.218;2023-03-13T15:36:10;19.00;91.60
62912;DHT22;49111;51.028;4.218;2023-03-13T15:38:37;19.10;90.10
62912;DHT22;49111;51.028;4.218;2023-03-13T15:41:03;18.90;89.00
62912;DHT22;49111;51.028;4.218;2023-03-13T15:43:29;18.80;88.00
62912;DHT22;49111;51.028;4.218;2023-03-13T15:45:55;18.70;87.90
62912;DHT22;49111;51.028;4.218;2023-03-13T15:48:26;18.70;87.50
62912;DHT22;49111;51.028;4.218;2023-03-13T15:51:00;18.50;89.30
62912;DHT22;49111;51.028;4.218;2023-03-13T15:53:32;18.30;90.30
62912;DHT22;49111;51.028;4.218;2023-03-13T15:56:01;18.40;90.40
62912;DHT22;49111;51.028;4.218;2023-03-13T15:58:28;18.40;90.30
62912;DHT22;49111;51.028;4.218;2023-03-13T16:00:55;18.40;89.60
62912;DHT22;49111;51.028;4.218;2023-03-13T16:03:23;18.50;90.20
62912;DHT22;49111;51.028;4.218;2023-03-13T16:05:50;18.50;90.30
62912;DHT22;49111;51.028;4.218;2023-03-13T16:08:27;18.50;90.60
62912;DHT22;49111;51.028;4.218;2023-03-13T16:10:54;18.60;90.80
62912;DHT22;49111;51.028;4.218;2023-03-13T16:13:20;18.40;91.30
62912;DHT22;49111;51.028;4.218;2023-03-13T16:15:46;18.40;91.40
62912;DHT22;49111;51.028;4.218;2023-03-13T16:18:21;18.40;91.50
62912;DHT22;49111;51.028;4.218;2023-03-13T16:20:48;18.30;91.60
62912;DHT22;49111;51.028;4.218;2023-03-13T16:23:14;18.20;91.90
62912;DHT22;49111;51.028;4.218;2023-03-13T16:25:42;18.20;91.80
62912;DHT22;49111;51.028;4.218;2023-03-13T16:28:11;18.20;91.60
62912;DHT22;49111;51.028;4.218;2023-03-13T16:30:38;18.10;91.90
62912;DHT22;49111;51.028;4.218;2023-03-13T16:33:09;18.00;91.90
62912;DHT22;49111;51.028;4.218;2023-03-13T16:35:35;18.00;92.00
62912;DHT22;49111;51.028;4.218;2023-03-13T16:38:01;17.80;92.60
62912;DHT22;49111;51.028;4.218;2023-03-13T16:40:30;17.90;92.50
62912;DHT22;49111;51.028;4.218;2023-03-13T16:42:56;17.90;92.10
62912;DHT22;49111;51.028;4.218;2023-03-13T16:45:22;17.90;92.40
62912;DHT22;49111;51.028;4.218;2023-03-13T16:47:48;17.90;92.70
62912;DHT22;49111;51.028;4.218;2023-03-13T16:50:18;17.90;93.10
62912;DHT22;49111;51.028;4.218;2023-03-13T16:52:45;17.80;93.20
62912;DHT22;49111;51.028;4.218;2023-03-13T16:55:11;17.90;93.10
62912;DHT22;49111;51.028;4.218;2023-03-13T16:57:36;17.80;93.10
62912;DHT22;49111;51.028;4.218;2023-03-13T17:00:25;17.90;93.00
62912;DHT22;49111;51.028;4.218;2023-03-13T17:02:49;17.70;93.10
62912;DHT22;49111;51.028;4.218;2023-03-13T17:05:15;17.80;93.20
62912;DHT22;49111;51.028;4.218;2023-03-13T17:07:46;17.80;93.50
62912;DHT22;49111;51.028;4.218;2023-03-13T17:10:26;17.80;93.30
62912;DHT22;49111;51.028;4.218;2023-03-13T17:12:52;17.70;93.40
62912;DHT22;49111;51.028;4.218;2023-03-13T17:15:18;17.60;93.80
62912;DHT22;49111;51.028;4.218;2023-03-13T17:17:46;17.50;94.00
62912;DHT22;49111;51.028;4.218;2023-03-13T17:20:24;17.40;94.30
62912;DHT22;49111;51.028;4.218;2023-03-13T17:22:50;17.60;94.10
62912;DHT22;49111;51.028;4.218;2023-03-13T17:25:16;17.50;94.20
62912;DHT22;49111;51.028;4.218;2023-03-13T17:27:42;17.50;94.10
62912;DHT22;49111;51.028;4.218;2023-03-13T17:30:27;17.50;94.40
62912;DHT22;49111;51.028;4.218;2023-03-13T17:32:53;17.50;94.60
62912;DHT22;49111;51.028;4.218;2023-03-13T17:35:19;17.30;95.10
62912;DHT22;49111;51.028;4.218;2023-03-13T17:37:46;17.30;94.90
62912;DHT22;49111;51.028;4.218;2023-03-13T17:40:24;17.30;95.30
62912;DHT22;49111;51.028;4.218;2023-03-13T17:42:51;17.20;95.00
62912;DHT22;49111;51.028;4.218;2023-03-13T17:45:18;17.20;95.20
62912;DHT22;49111;51.028;4.218;2023-03-13T17:47:44;17.20;95.20
62912;DHT22;49111;51.028;4.218;2023-03-13T17:52:40;17.10;95.60
62912;DHT22;49111;51.028;4.218;2023-03-13T17:55:07;17.10;95.70
62912;DHT22;49111;51.028;4.218;2023-03-13T17:57:33;17.00;95.90
62912;DHT22;49111;51.028;4.218;2023-03-13T17:59:58;16.80;95.90
62912;DHT22;49111;51.028;4.218;2023-03-13T18:02:24;16.90;96.00
62912;DHT22;49111;51.028;4.218;2023-03-13T18:04:50;16.80;96.10
62912;DHT22;49111;51.028;4.218;2023-03-13T18:07:26;16.80;96.30
62912;DHT22;49111;51.028;4.218;2023-03-13T18:09:52;16.70;96.30
62912;DHT22;49111;51.028;4.218;2023-03-13T18:12:18;16.70;96.60
62912;DHT22;49111;51.028;4.218;2023-03-13T18:14:44;16.80;96.70
62912;DHT22;49111;51.028;4.218;2023-03-13T18:17:21;16.70;97.00
62912;DHT22;49111;51.028;4.218;2023-03-13T18:19:48;16.70;97.30
62912;DHT22;49111;51.028;4.218;2023-03-13T18:22:17;16.70;97.50
62912;DHT22;49111;51.028;4.218;2023-03-13T18:24:43;16.70;97.60
62912;DHT22;49111;51.028;4.218;2023-03-13T18:27:20;16.70;97.80
62912;DHT22;49111;51.028;4.218;2023-03-13T18:29:47;16.70;97.80
62912;DHT22;49111;51.028;4.218;2023-03-13T18:32:15;16.80;97.90
62912;DHT22;49111;51.028;4.218;2023-03-13T18:34:42;16.60;98.40
62912;DHT22;49111;51.028;4.218;2023-03-13T18:39:43;16.50;99.20
62912;DHT22;49111;51.028;4.218;2023-03-13T18:42:09;16.40;99.50
62912;DHT22;49111;51.028;4.218;2023-03-13T18:44:35;16.40;99.90
62912;DHT22;49111;51.028;4.218;2023-03-13T18:47:07;16.50;99.90
62912;DHT22;49111;51.028;4.218;2023-03-13T18:49:34;16.40;99.90
62912;DHT22;49111;51.028;4.218;2023-03-13T18:52:00;16.30;99.90
62912;DHT22;49111;51.028;4.218;2023-03-13T18:54:26;16.20;99.90
62912;DHT22;49111;51.028;4.218;2023-03-13T18:56:51;16.10;99.90
62912;DHT22;49111;51.028;4.218;2023-03-13T18:59:19;16.10;99.90
62912;DHT22;49111;51.028;4.218;2023-03-13T19:01:46;16.10;99.90
62912;DHT22;49111;51.028;4.218;2023-03-13T19:04:14;16.20;99.90
62912;DHT22;49111;51.028;4.218;2023-03-13T19:06:41;16.10;99.90
62912;DHT22;49111;51.028;4.218;2023-03-13T19:11:40;16.30;99.90
62912;DHT22;49111;51.028;4.218;2023-03-13T19:14:06;16.30;99.90
62912;DHT22;49111;51.028;4.218;2023-03-13T19:16:35;16.40;99.90
62912;DHT22;49111;51.028;4.218;2023-03-13T19:19:13;16.50;99.90
62912;DHT22;49111;51.028;4.218;2023-03-13T19:21:39;16.60;99.90
62912;DHT22;49111;51.028;4.218;2023-03-13T19:24:06;16.60;99.90
62912;DHT22;49111;51.028;4.218;2023-03-13T19:26:41;16.60;99.90
